Time;durP1;ratioP1;P1;durP2;ratioP2;P2;SDS_P1;SDS_P2;PMS_P1;PMS_P2;Temp;Humidity;BMP_temperature;BMP_pressure;BME280_temperature;BME280_humidity;BME280_pressure;Samples;Min_cycle;Max_cycle;Signal;HPM_P1;HPM_P2
2022/04/30 00:00:29;;;;;;;14.98;9.52;;;6.30;99.90;;;;;;6166896;23;20099;-92
2022/04/30 00:02:58;;;;;;;15.02;8.70;;;6.30;99.90;;;;;;6166448;23;20017;-92
2022/04/30 00:05:24;;;;;;;19.50;8.73;;;6.30;99.90;;;;;;6166378;23;20067;-92
2022/04/30 00:08:13;;;;;;;17.65;8.32;;;6.20;99.90;;;;;;6166597;23;20043;-94
2022/04/30 00:15:52;;;;;;;14.43;8.80;;;6.20;99.90;;;;;;6203450;23;20029;-92
2022/04/30 00:18:18;;;;;;;15.27;8.30;;;6.20;99.90;;;;;;6164659;23;20020;-92
2022/04/30 00:20:46;;;;;;;16.27;8.97;;;6.20;99.90;;;;;;6166607;23;20044;-91
2022/04/30 00:23:19;;;;;;;14.63;9.73;;;6.20;99.90;;;;;;6167168;23;20017;-94
2022/04/30 00:25:53;;;;;;;14.38;7.95;;;6.20;99.90;;;;;;6166278;23;20107;-93
2022/04/30 00:28:21;;;;;;;14.35;8.75;;;6.20;99.90;;;;;;6166427;23;20014;-91
2022/04/30 00:30:47;;;;;;;12.88;8.48;;;6.10;99.90;;;;;;6166976;23;20024;-96
2022/04/30 00:33:14;;;;;;;13.23;8.18;;;6.10;99.90;;;;;;6170239;23;20027;-95
2022/04/30 00:35:40;;;;;;;12.77;7.93;;;6.10;99.90;;;;;;6174505;23;20373;-95
2022/04/30 00:38:06;;;;;;;12.55;8.77;;;6.10;99.90;;;;;;6169649;23;20392;-95
2022/04/30 00:40:32;;;;;;;14.57;7.80;;;6.10;99.90;;;;;;6169239;23;20020;-92
2022/04/30 00:42:58;;;;;;;10.98;7.93;;;6.00;99.90;;;;;;6191689;23;20024;-94
2022/04/30 00:45:24;;;;;;;13.63;8.13;;;6.00;99.90;;;;;;6165696;23;20021;-93
2022/04/30 00:47:50;;;;;;;13.80;8.15;;;5.90;99.90;;;;;;6166063;23;20342;-93
2022/04/30 00:50:16;;;;;;;13.37;8.27;;;5.90;99.90;;;;;;6166038;23;20020;-93
2022/04/30 00:52:47;;;;;;;12.85;7.30;;;5.90;99.90;;;;;;6166293;23;20362;-92
2022/04/30 00:55:13;;;;;;;12.85;7.43;;;5.90;99.90;;;;;;6166441;23;20095;-90
2022/04/30 00:57:43;;;;;;;11.55;7.15;;;5.90;99.90;;;;;;6166056;23;20039;-94
2022/04/30 01:00:12;;;;;;;11.00;7.10;;;5.90;99.90;;;;;;6166357;23;20013;-92
2022/04/30 01:02:40;;;;;;;11.68;7.63;;;5.90;99.90;;;;;;6165888;23;20066;-93
2022/04/30 01:05:14;;;;;;;9.90;7.40;;;5.90;99.90;;;;;;6165939;23;20341;-92
2022/04/30 01:07:40;;;;;;;11.38;7.50;;;5.90;99.90;;;;;;6166157;23;20019;-92
2022/04/30 01:10:20;;;;;;;13.00;7.43;;;5.90;99.90;;;;;;6165962;23;20020;-93
2022/04/30 01:12:47;;;;;;;15.75;7.90;;;5.90;99.90;;;;;;6166079;23;20397;-92
2022/04/30 01:15:13;;;;;;;14.30;8.07;;;5.80;99.90;;;;;;6166215;23;20071;-93
2022/04/30 01:17:41;;;;;;;11.13;8.17;;;5.80;99.90;;;;;;6165838;23;20016;-91
2022/04/30 01:20:07;;;;;;;10.88;7.60;;;5.80;99.90;;;;;;6165600;23;20013;-91
2022/04/30 01:22:39;;;;;;;12.02;7.78;;;5.80;99.90;;;;;;6190703;23;20103;-91
2022/04/30 01:25:05;;;;;;;12.25;7.68;;;5.80;99.90;;;;;;6165746;23;20492;-92
2022/04/30 01:27:31;;;;;;;11.77;7.40;;;5.70;99.90;;;;;;6165784;23;20016;-91
2022/04/30 01:30:00;;;;;;;13.60;7.68;;;5.70;99.90;;;;;;6165661;23;20047;-91
2022/04/30 01:38:00;;;;;;;12.32;7.75;;;5.70;99.90;;;;;;6190373;23;20051;-91
2022/04/30 01:40:26;;;;;;;11.48;7.45;;;5.70;99.90;;;;;;6166010;23;20020;-92
2022/04/30 01:42:52;;;;;;;10.48;7.38;;;5.70;99.90;;;;;;6165805;23;20446;-92
2022/04/30 01:45:18;;;;;;;12.00;7.85;;;5.70;99.90;;;;;;6165691;23;20120;-91
2022/04/30 01:47:46;;;;;;;11.43;7.43;;;5.70;99.90;;;;;;6166241;23;20013;-90
2022/04/30 01:50:13;;;;;;;13.80;7.45;;;5.70;99.90;;;;;;6166115;23;20338;-92
2022/04/30 01:52:39;;;;;;;10.38;6.80;;;5.70;99.90;;;;;;6165898;23;20016;-91
2022/04/30 01:55:05;;;;;;;11.55;7.35;;;5.70;99.90;;;;;;6165413;23;20020;-93
2022/04/30 01:57:31;;;;;;;14.35;7.53;;;5.70;99.90;;;;;;6165561;23;20013;-90
2022/04/30 01:59:59;;;;;;;10.67;7.10;;;5.60;99.90;;;;;;6165785;23;20016;-91
2022/04/30 02:02:34;;;;;;;11.57;7.28;;;5.60;99.90;;;;;;6165751;23;20016;-93
2022/04/30 02:05:04;;;;;;;14.27;6.97;;;5.60;99.90;;;;;;6165179;23;20051;-92
2022/04/30 02:07:33;;;;;;;10.65;7.15;;;5.60;99.90;;;;;;6165595;23;20016;-91
2022/04/30 02:10:00;;;;;;;13.90;7.10;;;5.60;99.90;;;;;;6165124;23;20035;-90
2022/04/30 02:12:31;;;;;;;10.18;7.72;;;5.60;99.90;;;;;;6165150;23;20013;-91
2022/04/30 02:14:58;;;;;;;15.45;7.10;;;5.60;99.90;;;;;;6165410;23;20035;-91
2022/04/30 02:17:26;;;;;;;12.93;7.00;;;5.50;99.90;;;;;;6164951;23;20063;-90
2022/04/30 02:22:40;;;;;;;11.90;6.75;;;5.50;99.90;;;;;;6189994;23;20082;-91
2022/04/30 02:25:12;;;;;;;9.98;6.68;;;5.50;99.90;;;;;;6165054;23;20048;-90
2022/04/30 02:27:39;;;;;;;11.65;6.95;;;5.50;99.90;;;;;;6165079;23;20012;-91
2022/04/30 02:30:06;;;;;;;;;;;5.50;99.90;;;;;;6190305;23;20020;-91
2022/04/30 02:32:45;;;;;;;11.25;6.93;;;5.50;99.90;;;;;;6165301;23;19926;-91
2022/04/30 02:35:15;;;;;;;11.52;7.35;;;5.40;99.90;;;;;;6164997;23;20012;-92
2022/04/30 02:37:44;;;;;;;9.90;7.25;;;5.40;99.90;;;;;;6165159;23;20342;-91
2022/04/30 02:40:13;;;;;;;9.95;6.78;;;5.40;99.90;;;;;;6165186;23;20043;-91
2022/04/30 02:42:39;;;;;;;12.98;7.25;;;5.50;99.90;;;;;;6165074;23;20017;-91
2022/04/30 02:45:06;;;;;;;15.20;8.80;;;5.50;99.90;;;;;;6164975;23;20023;-91
2022/04/30 02:47:32;;;;;;;11.52;7.15;;;5.50;99.90;;;;;;6164972;23;20620;-90
2022/04/30 02:49:57;;;;;;;12.03;6.83;;;5.60;99.90;;;;;;6164983;23;20020;-91
2022/04/30 02:52:23;;;;;;;11.50;7.27;;;5.60;99.90;;;;;;6164962;23;20013;-90
2022/04/30 02:54:49;;;;;;;10.53;7.27;;;5.60;99.90;;;;;;6165066;23;20059;-91
2022/04/30 02:57:15;;;;;;;9.67;6.87;;;5.60;99.90;;;;;;6165032;23;20078;-90
2022/04/30 02:59:58;;;;;;;12.27;7.37;;;5.60;99.90;;;;;;6189663;23;20387;-91
2022/04/30 03:02:24;;;;;;;10.32;6.78;;;5.50;99.90;;;;;;6164775;23;20008;-91
2022/04/30 03:04:51;;;;;;;12.97;7.23;;;5.60;99.90;;;;;;6164864;23;20027;-91
2022/04/30 03:07:20;;;;;;;11.18;7.25;;;5.60;99.90;;;;;;6165118;23;20342;-90
2022/04/30 03:09:47;;;;;;;10.30;6.43;;;5.60;99.90;;;;;;6164896;23;20327;-91
2022/04/30 03:12:13;;;;;;;13.02;6.95;;;5.60;99.90;;;;;;6165457;23;20021;-93
2022/04/30 03:14:40;;;;;;;12.30;6.72;;;5.60;99.90;;;;;;6164839;23;20315;-92
2022/04/30 03:22:34;;;;;;;13.32;6.97;;;5.60;99.90;;;;;;6189358;23;20020;-91
2022/04/30 03:25:00;;;;;;;12.17;7.37;;;5.60;99.90;;;;;;6164621;23;20025;-91
2022/04/30 03:27:26;;;;;;;12.07;7.30;;;5.50;99.90;;;;;;6189654;23;20048;-91
2022/04/30 03:29:52;;;;;;;14.77;8.23;;;5.50;99.90;;;;;;6164951;23;20020;-91
2022/04/30 03:32:20;;;;;;;12.45;8.02;;;5.50;99.90;;;;;;6164884;23;20015;-91
2022/04/30 03:34:46;;;;;;;10.57;7.50;;;5.40;99.90;;;;;;6189308;23;20021;-94
2022/04/30 03:37:13;;;;;;;12.25;7.80;;;5.50;99.90;;;;;;6164841;23;20461;-93
2022/04/30 03:39:39;;;;;;;15.30;7.70;;;5.50;99.90;;;;;;6164549;23;20016;-92
2022/04/30 03:42:05;;;;;;;11.50;7.07;;;5.50;99.90;;;;;;6164839;23;20035;-93
2022/04/30 03:44:32;;;;;;;12.98;7.65;;;5.50;99.90;;;;;;6164552;23;20016;-90
2022/04/30 03:46:57;;;;;;;12.50;7.57;;;5.50;99.90;;;;;;6164768;23;20048;-93
2022/04/30 03:49:23;;;;;;;12.87;7.33;;;5.50;99.90;;;;;;6164993;23;20024;-93
2022/04/30 03:51:49;;;;;;;11.03;7.50;;;5.50;99.90;;;;;;6164797;23;20148;-93
2022/04/30 03:54:14;;;;;;;13.03;6.87;;;5.50;99.90;;;;;;6164666;23;20020;-92
2022/04/30 03:56:40;;;;;;;11.07;7.43;;;5.50;99.90;;;;;;6164915;23;20012;-93
2022/04/30 03:59:06;;;;;;;13.10;7.33;;;5.50;99.90;;;;;;6164765;23;20020;-92
2022/04/30 04:01:34;;;;;;;12.67;7.37;;;5.40;99.90;;;;;;6164683;23;20334;-92
2022/04/30 04:04:00;;;;;;;9.95;6.78;;;5.40;99.90;;;;;;6164648;23;20103;-94
2022/04/30 04:06:26;;;;;;;11.85;7.28;;;5.40;99.90;;;;;;6165114;23;20323;-93
2022/04/30 04:08:52;;;;;;;10.90;7.30;;;5.40;99.90;;;;;;6166549;23;20083;-92
2022/04/30 04:11:19;;;;;;;15.17;7.63;;;5.40;99.90;;;;;;6166131;23;20013;-93
2022/04/30 04:19:13;;;;;;;10.90;7.05;;;5.50;99.90;;;;;;6189764;23;20027;-93
2022/04/30 04:21:39;;;;;;;11.60;7.50;;;5.50;99.90;;;;;;6166165;23;20048;-93
2022/04/30 04:26:49;;;;;;;13.52;6.90;;;5.50;99.90;;;;;;6191546;23;20372;-92
2022/04/30 04:29:16;;;;;;;11.87;7.53;;;5.60;99.90;;;;;;6167058;23;20020;-92
2022/04/30 04:31:44;;;;;;;9.93;6.82;;;5.60;99.90;;;;;;6167183;23;20088;-92
2022/04/30 04:34:11;;;;;;;12.90;7.50;;;5.60;99.90;;;;;;6166939;23;20017;-93
2022/04/30 04:36:37;;;;;;;11.13;6.88;;;5.70;99.90;;;;;;6166984;23;20019;-90
2022/04/30 04:39:12;;;;;;;13.30;7.20;;;5.70;99.90;;;;;;6166193;23;20453;-93
2022/04/30 04:41:39;;;;;;;13.52;7.10;;;5.70;99.90;;;;;;6166030;23;20051;-92
2022/04/30 04:44:05;;;;;;;14.40;7.65;;;5.70;99.90;;;;;;6166048;23;20017;-90
2022/04/30 04:46:32;;;;;;;15.73;7.40;;;5.70;99.90;;;;;;6166249;23;20009;-90
2022/04/30 04:48:57;;;;;;;12.15;7.03;;;5.80;99.90;;;;;;6165969;23;20719;-92
2022/04/30 04:51:23;;;;;;;11.80;7.50;;;5.70;99.90;;;;;;6166025;23;20056;-93
2022/04/30 04:53:49;;;;;;;13.03;7.20;;;5.80;99.90;;;;;;6166000;23;20039;-91
2022/04/30 04:56:15;;;;;;;12.73;7.13;;;5.80;99.90;;;;;;6166174;23;20248;-91
2022/04/30 04:58:41;;;;;;;12.50;7.13;;;5.80;99.90;;;;;;6166123;23;20013;-91
2022/04/30 05:01:06;;;;;;;12.63;6.80;;;5.90;99.90;;;;;;6165822;23;20028;-92
2022/04/30 05:03:32;;;;;;;13.10;7.17;;;5.90;99.90;;;;;;6166029;23;20071;-93
2022/04/30 05:05:58;;;;;;;13.77;7.10;;;5.90;99.90;;;;;;6165944;23;20023;-91
2022/04/30 05:08:24;;;;;;;15.50;7.20;;;5.90;99.90;;;;;;6166091;23;20027;-91
2022/04/30 05:10:49;;;;;;;15.13;7.53;;;5.90;99.90;;;;;;6165659;23;20021;-90
2022/04/30 05:13:15;;;;;;;8.27;6.87;;;6.00;99.90;;;;;;6166068;23;20013;-91
2022/04/30 05:15:41;;;;;;;13.00;6.87;;;6.00;99.90;;;;;;6165771;23;20323;-91
2022/04/30 05:18:10;;;;;;;12.30;8.03;;;6.10;99.90;;;;;;6165822;23;20454;-91
2022/04/30 05:20:36;;;;;;;14.07;7.22;;;6.10;99.90;;;;;;6165936;23;20323;-92
2022/04/30 05:23:02;;;;;;;13.60;7.10;;;6.10;99.90;;;;;;6165727;23;20016;-91
2022/04/30 05:25:28;;;;;;;13.93;7.83;;;6.20;99.90;;;;;;6165579;23;20020;-92
2022/04/30 05:27:53;;;;;;;10.47;7.90;;;6.20;99.90;;;;;;6166122;23;20067;-91
2022/04/30 05:30:19;;;;;;;12.00;8.07;;;6.30;99.90;;;;;;6165969;23;20144;-91
2022/04/30 05:32:45;;;;;;;16.73;9.13;;;6.40;99.90;;;;;;6165870;23;20092;-90
2022/04/30 05:35:11;;;;;;;12.30;7.50;;;6.50;99.90;;;;;;6166035;23;20016;-91
2022/04/30 05:37:36;;;;;;;15.07;7.97;;;6.50;99.90;;;;;;6165934;23;20399;-90
2022/04/30 05:40:02;;;;;;;13.53;8.10;;;6.60;99.90;;;;;;6166117;23;20013;-90
2022/04/30 05:42:28;;;;;;;13.77;8.40;;;6.70;99.90;;;;;;6165986;23;20016;-91
2022/04/30 05:44:54;;;;;;;10.60;8.30;;;6.80;99.90;;;;;;6166119;23;20063;-91
2022/04/30 05:47:20;;;;;;;12.70;8.30;;;6.90;99.90;;;;;;6190487;23;20504;-90
2022/04/30 05:49:46;;;;;;;12.52;8.82;;;6.90;99.90;;;;;;6166100;23;20020;-91
2022/04/30 05:52:12;;;;;;;11.93;8.73;;;7.10;99.90;;;;;;6165651;23;20031;-90
2022/04/30 05:54:37;;;;;;;13.83;9.03;;;7.20;99.90;;;;;;6165620;23;20012;-91
2022/04/30 05:57:04;;;;;;;14.70;8.93;;;7.30;99.90;;;;;;6165480;23;20008;-91
2022/04/30 05:59:29;;;;;;;13.38;9.10;;;7.40;99.90;;;;;;6165182;23;20017;-91
2022/04/30 06:01:55;;;;;;;12.87;8.73;;;7.60;99.90;;;;;;6165821;23;20453;-91
2022/04/30 06:04:21;;;;;;;10.48;8.68;;;7.70;99.90;;;;;;6165104;23;20476;-90
2022/04/30 06:06:47;;;;;;;12.67;8.33;;;7.90;99.90;;;;;;6165220;23;20021;-90
2022/04/30 06:09:14;;;;;;;12.67;8.23;;;8.10;99.90;;;;;;6165069;23;20263;-90
2022/04/30 06:11:43;;;;;;;;;;;8.20;99.90;;;;;;6165825;23;20013;-91
2022/04/30 06:14:09;;;;;;;10.82;7.50;;;8.40;99.90;;;;;;6165380;23;19920;-90
2022/04/30 06:16:35;;;;;;;14.60;8.40;;;8.40;99.90;;;;;;6164958;23;20020;-91
2022/04/30 06:19:01;;;;;;;14.33;7.93;;;8.50;99.90;;;;;;6165181;23;20446;-90
2022/04/30 06:21:26;;;;;;;13.03;7.97;;;8.60;99.90;;;;;;6164945;23;20098;-90
2022/04/30 06:23:52;;;;;;;11.93;8.53;;;8.70;99.90;;;;;;6164936;23;20016;-90
2022/04/30 06:26:18;;;;;;;15.00;7.93;;;8.80;99.90;;;;;;6164844;23;20023;-90
2022/04/30 06:28:43;;;;;;;11.50;7.67;;;9.20;99.90;;;;;;6189835;23;20021;-90
2022/04/30 06:31:09;;;;;;;12.43;7.80;;;9.70;99.90;;;;;;6189585;23;20093;-92
2022/04/30 06:33:35;;;;;;;9.83;6.73;;;10.30;99.90;;;;;;6164752;23;20075;-92
2022/04/30 06:36:01;;;;;;;9.53;6.53;;;10.70;99.90;;;;;;6165025;23;20393;-90
2022/04/30 06:38:27;;;;;;;9.67;5.57;;;10.80;99.90;;;;;;6164929;23;20042;-91
2022/04/30 06:40:53;;;;;;;16.00;6.38;;;10.60;99.90;;;;;;6165048;23;20013;-91
2022/04/30 06:43:19;;;;;;;16.27;7.00;;;10.40;99.90;;;;;;6164579;23;20059;-90
2022/04/30 06:45:44;;;;;;;15.03;5.97;;;10.20;99.90;;;;;;6189776;23;20134;-91
2022/04/30 06:48:10;;;;;;;12.20;6.30;;;10.00;99.90;;;;;;6165086;23;20019;-91
2022/04/30 06:50:36;;;;;;;12.17;7.17;;;9.90;99.90;;;;;;6185996;23;20017;-90
2022/04/30 06:58:41;;;;;;;10.70;6.38;;;9.60;99.90;;;;;;6189144;23;20016;-91
2022/04/30 07:04:04;;;;;;;12.10;6.78;;;9.50;99.90;;;;;;6187448;23;20079;-90
2022/04/30 07:06:31;;;;;;;12.60;6.60;;;9.60;99.90;;;;;;6164826;23;20017;-90
2022/04/30 07:08:56;;;;;;;;;;;9.50;99.90;;;;;;6165426;23;20016;-91
2022/04/30 07:11:22;;;;;;;12.88;7.30;;;9.50;99.90;;;;;;6164825;23;19916;-91
2022/04/30 07:13:48;;;;;;;13.33;6.53;;;9.50;99.90;;;;;;6165290;23;20477;-91
2022/04/30 07:16:14;;;;;;;11.00;6.47;;;9.50;99.90;;;;;;6165410;23;20021;-91
2022/04/30 07:18:40;;;;;;;12.88;6.13;;;9.50;99.90;;;;;;6165136;23;20013;-90
2022/04/30 07:21:51;;;;;;;;;;;;;;;;;;;;;
2022/04/30 07:24:33;;;;;;;12.50;6.78;;;9.50;99.90;;;;;;6195854;23;20025;-92
2022/04/30 07:27:00;;;;;;;14.13;6.82;;;9.50;99.90;;;;;;6164767;23;20100;-92
2022/04/30 07:29:25;;;;;;;12.13;7.20;;;9.50;99.90;;;;;;6164836;23;20075;-91
2022/04/30 07:31:51;;;;;;;15.47;7.17;;;9.50;99.90;;;;;;6164414;23;20012;-91
2022/04/30 07:34:17;;;;;;;12.23;6.53;;;9.50;99.90;;;;;;6164757;23;20512;-93
2022/04/30 07:36:43;;;;;;;14.17;6.83;;;9.60;99.90;;;;;;6164721;23;20016;-92
2022/04/30 07:39:09;;;;;;;14.33;7.50;;;9.50;99.90;;;;;;6164617;23;20048;-91
2022/04/30 07:41:35;;;;;;;15.13;6.68;;;9.60;99.90;;;;;;6164639;23;20435;-91
2022/04/30 07:44:01;;;;;;;12.15;6.32;;;9.60;99.90;;;;;;6164241;23;20458;-91
2022/04/30 07:46:27;;;;;;;9.63;6.80;;;9.60;99.90;;;;;;6189303;23;20016;-90
2022/04/30 07:48:52;;;;;;;18.77;7.30;;;9.60;99.90;;;;;;6164383;23;20294;-90
2022/04/30 07:51:29;;;;;;;15.50;6.97;;;9.60;99.90;;;;;;6164287;23;20024;-91
2022/04/30 07:53:54;;;;;;;12.00;6.10;;;9.70;99.90;;;;;;6164386;23;20266;-92
2022/04/30 07:56:20;;;;;;;14.13;6.50;;;9.60;99.90;;;;;;6166717;23;20100;-91
2022/04/30 07:58:46;;;;;;;15.33;6.60;;;9.70;99.90;;;;;;6191289;23;20438;-91
2022/04/30 08:01:13;;;;;;;12.13;7.10;;;9.70;99.90;;;;;;6166685;23;20040;-92
2022/04/30 08:03:40;;;;;;;13.10;6.80;;;9.70;99.90;;;;;;6166724;23;20059;-92
2022/04/30 08:06:06;;;;;;;12.20;6.22;;;9.70;99.90;;;;;;6166784;23;20378;-93
2022/04/30 08:08:31;;;;;;;12.17;6.40;;;9.70;99.90;;;;;;6166617;23;20061;-92
2022/04/30 08:10:57;;;;;;;13.97;6.60;;;9.70;99.90;;;;;;6166521;23;20028;-92
2022/04/30 08:13:23;;;;;;;14.20;7.13;;;9.70;99.90;;;;;;6166710;23;20009;-92
2022/04/30 08:15:48;;;;;;;16.80;7.57;;;9.80;99.90;;;;;;6166374;23;20035;-93
2022/04/30 08:18:14;;;;;;;14.63;7.37;;;9.80;99.90;;;;;;6166488;23;20079;-93
2022/04/30 08:20:40;;;;;;;16.23;7.50;;;9.80;99.90;;;;;;6166335;23;20096;-91
2022/04/30 08:23:07;;;;;;;15.98;6.63;;;9.80;99.90;;;;;;6166636;23;20016;-92
2022/04/30 08:25:36;;;;;;;16.42;7.15;;;9.90;99.90;;;;;;6166585;23;20016;-91
2022/04/30 08:28:24;;;;;;;11.02;6.25;;;9.90;99.90;;;;;;6166684;23;20013;-96
2022/04/30 08:30:50;;;;;;;17.40;9.40;;;10.00;99.90;;;;;;6193709;23;20055;-92
2022/04/30 08:38:29;;;;;;;12.07;7.70;;;10.00;99.90;;;;;;6154385;23;20387;-91
2022/04/30 08:40:55;;;;;;;13.20;8.03;;;10.00;99.90;;;;;;6131915;23;20022;-90
2022/04/30 08:43:21;;;;;;;15.40;8.03;;;10.00;99.90;;;;;;6132731;23;20017;-88
2022/04/30 08:45:47;;;;;;;14.98;6.70;;;10.00;99.90;;;;;;6131284;23;20494;-89
2022/04/30 08:48:15;;;;;;;11.93;6.35;;;9.90;99.90;;;;;;6106852;23;20010;-90
2022/04/30 08:50:43;;;;;;;17.38;7.53;;;9.80;99.90;;;;;;6155879;23;20076;-88
2022/04/30 08:53:09;;;;;;;11.88;7.32;;;9.80;99.90;;;;;;6131239;23;20028;-88
2022/04/30 08:55:35;;;;;;;;;;;9.70;99.90;;;;;;6106990;23;20018;-91
2022/04/30 08:58:02;;;;;;;11.23;6.82;;;9.70;99.90;;;;;;6130981;23;19924;-88
2022/04/30 09:00:28;;;;;;;;;;;9.60;99.90;;;;;;6131608;23;20470;-87
2022/04/30 09:02:56;;;;;;;15.98;8.70;;;9.50;99.90;;;;;;6130980;23;20327;-88
2022/04/30 09:05:28;;;;;;;13.85;8.15;;;9.50;99.90;;;;;;6106430;23;20032;-91
2022/04/30 09:07:56;;;;;;;14.15;7.65;;;9.50;99.90;;;;;;6130564;23;20327;-93
2022/04/30 09:10:30;;;;;;;13.43;8.27;;;9.40;99.90;;;;;;6130729;23;20530;-88
2022/04/30 09:13:09;;;;;;;18.08;8.43;;;9.40;99.90;;;;;;6106680;23;20017;-90
2022/04/30 09:15:37;;;;;;;14.13;8.07;;;9.50;99.90;;;;;;6130748;23;20088;-91
2022/04/30 09:18:05;;;;;;;12.85;8.18;;;9.50;99.90;;;;;;6106416;23;20064;-89
2022/04/30 09:20:47;;;;;;;14.75;8.23;;;9.40;99.90;;;;;;6105991;23;20360;-94
2022/04/30 09:23:24;;;;;;;12.55;7.55;;;9.50;99.90;;;;;;6106333;23;20028;-90
2022/04/30 09:25:55;;;;;;;14.57;7.32;;;9.50;99.90;;;;;;6106074;23;20017;-90
2022/04/30 09:28:38;;;;;;;13.68;7.20;;;9.50;99.90;;;;;;6106188;23;20096;-92
2022/04/30 09:31:16;;;;;;;14.52;7.63;;;9.60;99.90;;;;;;6130694;23;20021;-90
2022/04/30 09:37:40;;;;;;;11.43;6.15;;;9.60;99.90;;;;;;6106634;23;20029;-91
2022/04/30 09:39:41;;;;;;;10.10;5.78;;;9.60;99.90;;;;;;6130752;23;20022;-91
2022/04/30 09:42:07;;;;;;;10.63;5.22;;;9.60;99.90;;;;;;6130732;23;20114;-91
2022/04/30 09:44:37;;;;;;;19.83;7.43;;;9.70;99.90;;;;;;6106149;23;20018;-94
2022/04/30 09:47:08;;;;;;;133.20;11.15;;;9.70;99.90;;;;;;6106247;23;20029;-92
2022/04/30 09:55:05;;;;;;;14.43;5.18;;;9.80;99.90;;;;;;6130693;23;20394;-93
2022/04/30 09:57:38;;;;;;;66.88;8.80;;;9.80;99.90;;;;;;6106471;23;20048;-91
2022/04/30 10:00:04;;;;;;;22.45;6.50;;;9.80;99.90;;;;;;6106390;23;20079;-91
2022/04/30 10:02:31;;;;;;;11.95;4.95;;;9.90;99.90;;;;;;6130571;23;20014;-91
2022/04/30 10:05:01;;;;;;;9.27;4.50;;;9.90;99.90;;;;;;6107004;23;20036;-91
2022/04/30 10:07:29;;;;;;;14.15;5.13;;;9.90;99.90;;;;;;6106445;23;20020;-93
2022/04/30 10:10:04;;;;;;;25.48;5.57;;;9.90;99.90;;;;;;6130578;23;20018;-91
2022/04/30 10:12:39;;;;;;;46.28;6.93;;;9.90;99.90;;;;;;6130659;23;20096;-92
2022/04/30 10:15:08;;;;;;;8.00;4.50;;;10.00;99.90;;;;;;6106300;23;20018;-95
2022/04/30 10:17:40;;;;;;;8.95;4.18;;;10.00;99.90;;;;;;6129899;23;20014;-91
2022/04/30 10:20:19;;;;;;;10.60;4.55;;;10.00;99.90;;;;;;6106076;23;20057;-94
2022/04/30 10:22:52;;;;;;;8.07;4.70;;;10.00;99.90;;;;;;6130295;23;20036;-91
2022/04/30 10:25:35;;;;;;;10.68;4.90;;;10.00;99.90;;;;;;6105605;23;20477;-92
2022/04/30 10:28:16;;;;;;;10.32;4.72;;;10.00;99.90;;;;;;6104754;23;20010;-94
2022/04/30 10:31:00;;;;;;;14.85;5.38;;;10.10;99.90;;;;;;6129836;23;20017;-89
2022/04/30 10:33:26;;;;;;;9.52;4.68;;;10.10;99.90;;;;;;6106106;23;20083;-92
2022/04/30 10:36:10;;;;;;;8.55;4.78;;;10.10;99.90;;;;;;6106503;23;20379;-92
2022/04/30 10:38:37;;;;;;;8.38;4.82;;;10.20;99.90;;;;;;6105496;23;20447;-93
2022/04/30 10:41:04;;;;;;;9.10;4.70;;;10.20;99.90;;;;;;6105926;23;20088;-92
2022/04/30 10:43:40;;;;;;;8.65;4.05;;;10.30;99.90;;;;;;6106077;23;20023;-92
2022/04/30 10:46:31;;;;;;;10.07;4.80;;;10.20;99.90;;;;;;6154361;23;20025;-92
2022/04/30 10:49:06;;;;;;;9.23;5.45;;;10.20;99.90;;;;;;6107649;23;20050;-92
2022/04/30 10:51:54;;;;;;;8.43;5.20;;;10.30;99.90;;;;;;6102407;23;20021;-91
2022/04/30 10:54:37;;;;;;;9.93;4.50;;;10.30;99.90;;;;;;6103485;23;20049;-91
2022/04/30 10:57:09;;;;;;;10.32;4.35;;;10.20;99.90;;;;;;6104216;23;20653;-89
2022/04/30 10:59:38;;;;;;;13.68;4.25;;;10.20;99.90;;;;;;6105715;23;20056;-91
2022/04/30 11:02:09;;;;;;;10.50;4.77;;;10.20;99.90;;;;;;6104253;23;20017;-90
2022/04/30 11:04:35;;;;;;;8.48;4.60;;;10.30;99.90;;;;;;6105611;23;20507;-91
2022/04/30 11:15:57;;;;;;;8.32;5.15;;;10.30;99.90;;;;;;6155149;23;20363;-89
2022/04/30 11:18:23;;;;;;;8.38;5.05;;;10.30;99.90;;;;;;6130248;23;20028;-88
2022/04/30 11:21:10;;;;;;;11.00;5.27;;;10.30;99.90;;;;;;6104097;23;20017;-90
2022/04/30 11:23:36;;;;;;;13.77;7.05;;;10.30;99.90;;;;;;6104746;23;20440;-89
2022/04/30 11:26:02;;;;;;;9.20;5.27;;;10.30;99.90;;;;;;6107237;23;20021;-90
2022/04/30 11:28:29;;;;;;;57.40;8.95;;;10.40;99.90;;;;;;6108309;23;20478;-90
2022/04/30 11:30:59;;;;;;;9.63;4.80;;;10.40;99.90;;;;;;6111361;23;20079;-90
2022/04/30 11:33:36;;;;;;;11.05;5.07;;;10.40;99.90;;;;;;6111836;23;20351;-89
2022/04/30 11:36:04;;;;;;;11.82;5.43;;;10.50;99.90;;;;;;6166993;23;20017;-87
2022/04/30 11:38:29;;;;;;;9.63;5.20;;;10.60;99.90;;;;;;6111243;23;20018;-91
2022/04/30 11:41:06;;;;;;;7.67;4.40;;;10.70;99.90;;;;;;6107591;23;20024;-92
2022/04/30 11:43:32;;;;;;;11.07;5.50;;;10.70;99.90;;;;;;6108893;23;20018;-93
2022/04/30 11:46:01;;;;;;;11.20;5.50;;;10.80;99.90;;;;;;6107919;23;20018;-93
2022/04/30 11:48:36;;;;;;;10.30;5.97;;;10.80;99.90;;;;;;6108157;23;20068;-93
2022/04/30 11:51:02;;;;;;;10.73;6.13;;;10.80;99.90;;;;;;6108331;23;20025;-91
2022/04/30 11:53:28;;;;;;;6.63;4.63;;;10.90;99.90;;;;;;6107576;23;20014;-92
2022/04/30 11:55:53;;;;;;;6.72;3.47;;;11.00;99.90;;;;;;6108490;23;20444;-91
2022/04/30 11:58:19;;;;;;;6.90;3.93;;;11.10;99.90;;;;;;6107858;23;20017;-92
2022/04/30 12:00:45;;;;;;;10.47;6.27;;;11.10;99.90;;;;;;6108273;23;20096;-89
2022/04/30 12:03:10;;;;;;;14.73;11.27;;;11.20;99.90;;;;;;6108425;23;20096;-90
2022/04/30 12:05:41;;;;;;;8.77;4.53;;;11.20;99.90;;;;;;6109479;23;20036;-92
2022/04/30 12:08:07;;;;;;;12.18;7.35;;;11.20;99.90;;;;;;6105895;23;20013;-91
2022/04/30 12:10:32;;;;;;;8.17;5.03;;;11.30;99.90;;;;;;6107715;23;20339;-88
2022/04/30 12:12:58;;;;;;;8.60;5.00;;;11.30;99.90;;;;;;6107119;23;20014;-92
2022/04/30 12:15:28;;;;;;;12.95;6.93;;;11.30;99.90;;;;;;6106971;23;20033;-89
2022/04/30 12:26:40;;;;;;;12.68;7.50;;;11.40;99.90;;;;;;6131866;23;20052;-89
2022/04/30 12:29:20;;;;;;;10.07;4.20;;;11.50;99.90;;;;;;6107107;23;20085;-90
2022/04/30 12:31:47;;;;;;;8.70;5.20;;;11.50;99.90;;;;;;6107523;23;20018;-90
2022/04/30 12:34:27;;;;;;;10.00;5.55;;;11.60;99.90;;;;;;6106838;23;20094;-90
2022/04/30 12:36:53;;;;;;;13.02;8.63;;;11.60;99.90;;;;;;6107053;23;20020;-89
2022/04/30 12:39:22;;;;;;;7.57;4.93;;;11.60;99.90;;;;;;6107098;23;20021;-91
2022/04/30 12:41:48;;;;;;;8.13;4.85;;;11.70;99.90;;;;;;6105546;23;20055;-90
2022/04/30 12:44:15;;;;;;;11.02;7.40;;;11.70;99.90;;;;;;6106972;23;20013;-91
2022/04/30 12:46:45;;;;;;;13.30;9.63;;;11.70;99.90;;;;;;6107511;23;20017;-90
2022/04/30 12:49:12;;;;;;;16.23;12.10;;;11.70;99.90;;;;;;6131573;23;20018;-89
2022/04/30 12:51:41;;;;;;;8.30;5.95;;;11.80;99.90;;;;;;6106806;23;20036;-89
2022/04/30 12:54:12;;;;;;;19.30;11.07;;;11.80;99.90;;;;;;6131114;23;20149;-90
2022/04/30 12:56:39;;;;;;;11.75;8.13;;;11.80;99.90;;;;;;6130945;23;20471;-89
2022/04/30 12:59:05;;;;;;;14.68;11.35;;;11.80;99.90;;;;;;6106444;23;20017;-89
2022/04/30 13:01:33;;;;;;;8.20;5.22;;;11.80;99.90;;;;;;6130847;23;20014;-89
2022/04/30 13:03:58;;;;;;;6.20;3.47;;;11.80;99.90;;;;;;6131205;23;20021;-92
2022/04/30 13:06:24;;;;;;;6.13;3.23;;;11.80;99.90;;;;;;6131137;23;20041;-91
2022/04/30 13:14:20;;;;;;;10.32;4.50;;;11.90;99.90;;;;;;6131116;23;20029;-89
2022/04/30 13:16:45;;;;;;;11.97;5.17;;;12.00;99.90;;;;;;6130763;23;20022;-91
2022/04/30 13:19:11;;;;;;;8.67;4.57;;;12.00;99.90;;;;;;6106617;23;20068;-90
2022/04/30 13:21:37;;;;;;;7.03;3.92;;;11.90;99.90;;;;;;6106952;23;20072;-91
2022/04/30 13:24:04;;;;;;;8.63;4.03;;;12.00;99.90;;;;;;6106381;23;20340;-88
2022/04/30 13:26:29;;;;;;;6.75;4.00;;;12.00;99.90;;;;;;6130732;23;20028;-91
2022/04/30 13:28:55;;;;;;;7.23;3.90;;;12.00;99.90;;;;;;6105844;23;20018;-90
2022/04/30 13:31:22;;;;;;;35.03;16.73;;;12.00;99.90;;;;;;6105677;23;20029;-91
2022/04/30 13:33:48;;;;;;;;;;;11.90;99.90;;;;;;6106940;23;20474;-92
2022/04/30 13:36:13;;;;;;;22.40;18.42;;;11.90;99.90;;;;;;6106533;23;19917;-90
2022/04/30 13:38:40;;;;;;;51.07;16.60;;;11.90;99.90;;;;;;6106592;23;20018;-90
2022/04/30 13:41:06;;;;;;;51.45;22.30;;;11.80;99.90;;;;;;6131000;23;20014;-90
2022/04/30 13:43:32;;;;;;;13.43;9.83;;;11.70;99.90;;;;;;6104823;23;20148;-90
2022/04/30 13:45:58;;;;;;;19.73;10.93;;;11.70;99.90;;;;;;6105264;23;20017;-91
2022/04/30 13:48:24;;;;;;;22.83;16.45;;;11.70;99.90;;;;;;6106205;23;20021;-92
2022/04/30 13:50:52;;;;;;;14.95;11.55;;;11.60;99.90;;;;;;6106376;23;20030;-90
2022/04/30 13:53:19;;;;;;;21.73;14.73;;;11.50;99.90;;;;;;6106408;23;20528;-90
2022/04/30 13:55:48;;;;;;;26.80;16.20;;;11.60;99.90;;;;;;6106365;23;20021;-91
2022/04/30 13:58:14;;;;;;;14.60;10.05;;;11.60;99.90;;;;;;6083029;23;20025;-89
2022/04/30 14:00:40;;;;;;;11.90;6.63;;;11.60;99.90;;;;;;6106078;23;20013;-90
2022/04/30 14:03:06;;;;;;;9.65;6.13;;;11.50;99.90;;;;;;6106727;23;20021;-90
2022/04/30 14:05:35;;;;;;;10.55;6.28;;;11.50;99.90;;;;;;6129385;23;20028;-89